createdAt,value
2024-04-24T00:01:23.155Z,99241.28
2024-04-24T00:06:25.017Z,99234.44
2024-04-24T00:11:27.566Z,99233.91
2024-04-24T00:16:29.637Z,99220.94
2024-04-24T00:21:31.492Z,99217.69
2024-04-24T00:26:34.990Z,99207.06
2024-04-24T00:31:36.804Z,99201.47
2024-04-24T00:36:38.612Z,99198.25
2024-04-24T00:41:40.390Z,99188.75
2024-04-24T00:46:43.876Z,99180.25
2024-04-24T00:51:47.035Z,99177.44
2024-04-24T00:56:48.869Z,99166.53
2024-04-24T01:01:51.070Z,99163.31
2024-04-24T01:06:52.823Z,99146.56
2024-04-24T01:11:55.001Z,99150.34
2024-04-24T01:16:59.575Z,99137.47
2024-04-24T01:22:32.499Z,99128.81
2024-04-24T01:27:34.355Z,99123.91
2024-04-24T01:32:36.372Z,99120.03
2024-04-24T01:37:38.250Z,99118.47
2024-04-24T01:42:40.077Z,99113.28
2024-04-24T01:47:42.000Z,99119.31
2024-04-24T01:52:43.918Z,99101.97
2024-04-24T01:57:45.745Z,99098.91
2024-04-24T02:02:47.594Z,99100.16
2024-04-24T02:07:49.416Z,99098.91
2024-04-24T02:12:51.308Z,99092.47
2024-04-24T02:17:53.241Z,99082.28
2024-04-24T02:22:55.078Z,99072.91
2024-04-24T02:27:56.883Z,99070.69
2024-04-24T02:32:59.137Z,99074.34
2024-04-24T02:38:00.995Z,99063.00
2024-04-24T02:43:03.762Z,99065.53
2024-04-24T02:48:06.254Z,99053.66
2024-04-24T02:53:08.148Z,99046.94
2024-04-24T02:58:10.525Z,99038.59
2024-04-24T03:03:12.454Z,99028.66
2024-04-24T03:08:14.440Z,99028.53
2024-04-24T03:13:16.298Z,99029.22
2024-04-24T03:18:18.214Z,99022.94
2024-04-24T03:23:20.062Z,99022.78
2024-04-24T03:28:21.836Z,99016.19
2024-04-24T03:33:23.613Z,99006.81
2024-04-24T03:38:25.556Z,99007.38
2024-04-24T03:43:27.477Z,99011.59
2024-04-24T03:48:29.293Z,98997.94
2024-04-24T03:53:31.112Z,98997.66
2024-04-24T03:58:32.943Z,98996.25
2024-04-24T04:03:34.785Z,98985.59
2024-04-24T04:08:37.656Z,98984.72
2024-04-24T04:13:39.464Z,98982.00
2024-04-24T04:18:41.316Z,98985.38
2024-04-24T04:23:43.115Z,98986.91
2024-04-24T04:28:44.969Z,98982.31
2024-04-24T04:33:47.516Z,98982.41
2024-04-24T04:38:49.377Z,98985.19
2024-04-24T04:43:51.213Z,98984.16
2024-04-24T04:48:53.463Z,98966.91
2024-04-24T04:53:55.361Z,98969.22
2024-04-24T04:58:57.223Z,98969.22
2024-04-24T05:03:59.070Z,98964.59
2024-04-24T05:09:01.001Z,98954.31
2024-04-24T05:14:02.811Z,98957.88
2024-04-24T05:19:04.835Z,98956.34
2024-04-24T05:24:06.990Z,98951.44
2024-04-24T05:29:09.009Z,98952.47
2024-04-24T05:34:11.042Z,98938.19
2024-04-24T05:39:12.884Z,98928.72
2024-04-24T05:44:14.876Z,98925.00
2024-04-24T05:49:16.768Z,98924.34
2024-04-24T05:54:18.581Z,98916.06
2024-04-24T05:59:20.377Z,98920.38
2024-04-24T06:04:22.194Z,98910.25
2024-04-24T06:09:24.399Z,98905.91
2024-04-24T06:14:26.454Z,98909.09
2024-04-24T06:19:28.308Z,98894.72
2024-04-24T06:24:30.425Z,98901.94
2024-04-24T06:29:33.271Z,98903.47
2024-04-24T06:34:35.170Z,98888.44
2024-04-24T06:39:36.987Z,98892.63
2024-04-24T06:44:38.984Z,98888.41
2024-04-24T06:49:40.948Z,98879.25
2024-04-24T06:54:42.742Z,98871.06
2024-04-24T06:59:46.146Z,98871.09
2024-04-24T07:04:47.911Z,98871.06
2024-04-24T07:09:50.212Z,98858.78
2024-04-24T07:14:52.044Z,98859.75
2024-04-24T07:19:53.875Z,98850.59
2024-04-24T07:24:55.839Z,98850.84
2024-04-24T07:29:59.335Z,98841.59
2024-04-24T07:35:01.184Z,98838.06
2024-04-24T07:40:03.050Z,98824.25
2024-04-24T07:45:05.280Z,98826.25
2024-04-24T07:50:07.137Z,98825.53
2024-04-24T07:55:08.936Z,98811.41
2024-04-24T08:00:11.828Z,98815.84
2024-04-24T08:05:14.337Z,98807.72
2024-04-24T08:10:16.192Z,98811.53
2024-04-24T08:15:18.016Z,98800.63
2024-04-24T08:20:19.915Z,98811.69
2024-04-24T08:25:21.835Z,98799.59
2024-04-24T08:30:23.770Z,98789.25
2024-04-24T08:35:25.702Z,98791.91
2024-04-24T08:40:27.533Z,98790.31
2024-04-24T08:45:30.026Z,98783.78
2024-04-24T08:50:32.327Z,98781.28
2024-04-24T08:55:36.779Z,98775.81
2024-04-24T09:00:39.578Z,98772.69
2024-04-24T09:05:41.997Z,98771.63
2024-04-24T09:10:43.977Z,98785.50
2024-04-24T09:15:47.015Z,98773.97
2024-04-24T09:20:50.951Z,98775.41
2024-04-24T09:25:53.123Z,98774.31
2024-04-24T09:30:55.027Z,98786.34
2024-04-24T09:35:57.982Z,98785.94
2024-04-24T09:41:01.518Z,98794.56
2024-04-24T09:46:05.066Z,98779.53
2024-04-24T09:51:12.476Z,98764.00
2024-04-24T09:56:24.941Z,98753.59
2024-04-24T10:01:28.501Z,98737.78
2024-04-24T10:06:32.738Z,98745.38
2024-04-24T10:11:38.742Z,98748.03
2024-04-24T10:16:40.701Z,98765.03
2024-04-24T10:21:44.327Z,98765.53
2024-04-24T10:26:47.469Z,98768.38
2024-04-24T10:31:51.611Z,98766.38
2024-04-24T10:36:55.123Z,98767.13
2024-04-24T10:41:57.688Z,98772.19
2024-04-24T10:46:59.548Z,98778.06
2024-04-24T10:52:01.348Z,98770.66
2024-04-24T10:57:06.862Z,98759.53
2024-04-24T11:02:19.191Z,98751.16
2024-04-24T11:07:28.609Z,98755.91
2024-04-24T11:12:42.174Z,98739.88
2024-04-24T11:17:44.836Z,98738.81
2024-04-24T11:22:47.260Z,98737.00
2024-04-24T11:27:49.118Z,98737.78
2024-04-24T11:32:53.768Z,98732.34
2024-04-24T11:37:55.799Z,98722.50
2024-04-24T11:42:57.674Z,98729.41
2024-04-24T11:47:59.616Z,98713.19
2024-04-24T11:53:03.527Z,98719.00
2024-04-24T11:58:15.314Z,98705.31
2024-04-24T12:03:19.526Z,98690.41
2024-04-24T12:08:29.305Z,98690.38
2024-04-24T12:13:32.452Z,98674.19
2024-04-24T12:18:34.904Z,98671.06
2024-04-24T12:23:36.788Z,98668.22
2024-04-24T12:28:38.592Z,98672.34
2024-04-24T12:33:42.506Z,98673.72
2024-04-24T12:38:44.413Z,98695.22
2024-04-24T12:43:46.169Z,98696.56
2024-04-24T12:48:54.352Z,98689.25
2024-04-24T12:53:56.315Z,98697.44
2024-04-24T12:58:58.264Z,98688.81
2024-04-24T13:04:01.353Z,98682.06
2024-04-24T13:09:03.299Z,98679.88
2024-04-24T13:14:05.101Z,98668.06
2024-04-24T13:19:07.087Z,98670.56
2024-04-24T13:24:09.048Z,98662.34
2024-04-24T13:29:11.413Z,98657.22
2024-04-24T13:34:13.748Z,98660.25
2024-04-24T13:39:15.596Z,98648.03
2024-04-24T13:44:18.057Z,98652.72
2024-04-24T13:49:19.909Z,98648.97
2024-04-24T13:54:21.746Z,98649.00
2024-04-24T13:59:23.580Z,98637.13
2024-04-24T14:04:25.910Z,98632.28
2024-04-24T14:09:27.753Z,98636.81
2024-04-24T14:14:30.567Z,98646.28
2024-04-24T14:19:32.417Z,98649.88
2024-04-24T14:24:34.327Z,98649.38
2024-04-24T14:29:36.190Z,98650.25
2024-04-24T14:34:38.175Z,98655.38
2024-04-24T14:39:39.954Z,98657.06
2024-04-24T14:44:41.742Z,98646.66
2024-04-24T14:49:46.727Z,98635.16
2024-04-24T14:54:49.301Z,98626.38
2024-04-24T14:59:51.174Z,98624.03
2024-04-24T15:04:52.945Z,98615.03
2024-04-24T15:09:55.693Z,98621.63
2024-04-24T15:14:58.159Z,98615.59
2024-04-24T15:20:00.385Z,98616.47
2024-04-24T15:25:02.238Z,98605.66
2024-04-24T15:30:04.343Z,98601.41
2024-04-24T15:35:08.401Z,98600.59
2024-04-24T15:40:10.439Z,98606.31
2024-04-24T15:45:12.208Z,98601.78
2024-04-24T15:50:14.034Z,98596.50
2024-04-24T15:55:15.870Z,98596.06
2024-04-24T16:00:17.645Z,98582.13
2024-04-24T16:05:19.535Z,98588.66
2024-04-24T16:10:24.063Z,98585.06
2024-04-24T16:15:25.834Z,98579.09
2024-04-24T16:20:27.657Z,98589.50
2024-04-24T16:25:29.433Z,98583.31
2024-04-24T16:30:31.199Z,98582.31
2024-04-24T16:35:34.089Z,98595.41
2024-04-24T16:40:36.081Z,98605.56
2024-04-24T16:45:37.863Z,98595.59
2024-04-24T16:50:39.686Z,98606.03
2024-04-24T16:55:42.839Z,98605.06
2024-04-24T17:00:46.502Z,98606.19
2024-04-24T17:05:48.378Z,98604.16
2024-04-24T17:10:50.226Z,98609.31
2024-04-24T17:15:52.119Z,98614.09
2024-04-24T17:20:55.767Z,98611.22
2024-04-24T17:25:57.718Z,98614.66
2024-04-24T17:30:59.656Z,98611.31
2024-04-24T17:36:01.498Z,98607.16
2024-04-24T17:41:03.633Z,98612.72
2024-04-24T17:46:07.722Z,98611.59
2024-04-24T17:51:09.543Z,98621.25
2024-04-24T17:56:11.460Z,98630.16
2024-04-24T18:01:14.303Z,98629.38
2024-04-24T18:06:16.141Z,98636.00
2024-04-24T18:11:18.262Z,98627.28
2024-04-24T18:16:20.060Z,98636.88
2024-04-24T18:21:22.002Z,98639.72
2024-04-24T18:26:26.362Z,98644.97
2024-04-24T18:31:33.092Z,98644.31
2024-04-24T18:36:36.167Z,98653.03
2024-04-24T18:41:37.981Z,98652.44
2024-04-24T18:46:39.780Z,98663.63
2024-04-24T18:51:41.550Z,98662.78
2024-04-24T18:56:43.837Z,98663.97
2024-04-24T19:01:46.437Z,98669.78
2024-04-24T19:06:48.205Z,98668.47
2024-04-24T19:11:50.140Z,98675.94
2024-04-24T19:16:51.935Z,98666.94
2024-04-24T19:21:53.695Z,98665.59
2024-04-24T19:26:55.472Z,98667.59
2024-04-24T19:31:58.370Z,98672.88
2024-04-24T19:37:00.275Z,98666.88
2024-04-24T19:42:02.453Z,98672.34
2024-04-24T19:47:04.480Z,98668.66
2024-04-24T19:52:06.331Z,98676.34
2024-04-24T19:57:08.125Z,98675.31
2024-04-24T20:02:10.285Z,98674.13
2024-04-24T20:07:13.848Z,98681.00
2024-04-24T20:12:15.754Z,98677.84
2024-04-24T20:17:17.664Z,98676.38
2024-04-24T20:22:19.488Z,98681.91
2024-04-24T20:27:21.319Z,98687.25
2024-04-24T20:32:23.359Z,98685.22
2024-04-24T20:37:25.170Z,98680.06
2024-04-24T20:42:27.512Z,98681.22
2024-04-24T20:47:29.440Z,98680.38
2024-04-24T20:52:31.345Z,98687.88
2024-04-24T20:57:33.333Z,98682.56
2024-04-24T21:02:36.379Z,98684.25
2024-04-24T21:07:38.270Z,98682.56
2024-04-24T21:12:40.027Z,98685.91
2024-04-24T21:17:42.964Z,98684.75
2024-04-24T21:22:45.066Z,98677.78
2024-04-24T21:27:46.862Z,98672.09
2024-04-24T21:32:48.752Z,98664.91
2024-04-24T21:37:51.517Z,98664.06
2024-04-24T21:42:53.342Z,98660.41
2024-04-24T21:47:55.875Z,98662.63
2024-04-24T21:52:58.743Z,98661.78
2024-04-24T21:58:05.343Z,98659.28
2024-04-24T22:03:07.525Z,98653.78
2024-04-24T22:08:09.468Z,98655.59
2024-04-24T22:13:11.321Z,98645.75
2024-04-24T22:18:14.161Z,98644.88
2024-04-24T22:23:16.133Z,98641.72
2024-04-24T22:28:17.975Z,98649.16
2024-04-24T22:33:21.806Z,98644.69
2024-04-24T22:38:23.701Z,98641.34
2024-04-24T22:43:25.540Z,98638.16
2024-04-24T22:48:27.414Z,98637.47
2024-04-24T22:53:29.471Z,98628.28
2024-04-24T22:58:31.460Z,98624.13
2024-04-24T23:03:33.265Z,98636.72
2024-04-24T23:08:35.133Z,98630.25
2024-04-24T23:13:37.097Z,98622.16
2024-04-24T23:18:39.147Z,98628.16
2024-04-24T23:23:41.224Z,98627.00
2024-04-24T23:28:43.091Z,98623.84
2024-04-24T23:33:45.652Z,98628.84
2024-04-24T23:38:47.445Z,98630.88
2024-04-24T23:43:50.078Z,98627.59
2024-04-24T23:48:53.428Z,98624.72
2024-04-24T23:53:55.641Z,98625.91
2024-04-24T23:58:57.491Z,98624.25
